Time;durP1;ratioP1;P1;durP2;ratioP2;P2;SDS_P1;SDS_P2;PMS_P1;PMS_P2;Temp;Humidity;BMP_temperature;BMP_pressure;BME280_temperature;BME280_humidity;BME280_pressure;Samples;Min_cycle;Max_cycle;Signal;HPM_P1;HPM_P2
2023/08/09 00:01:32;;;;;;;1.98;0.68;;;;;;;19.97;100.00;100686.03;5052327;28;20025;-77
2023/08/09 00:03:58;;;;;;;1.48;0.60;;;;;;;20.15;100.00;100735.84;5051777;28;20476;-75
2023/08/09 00:06:23;;;;;;;0.85;0.80;;;;;;;20.36;100.00;100742.44;5051410;28;20410;-77
2023/08/09 00:08:48;;;;;;;0.68;0.68;;;;;;;19.97;100.00;100701.53;5051537;28;20083;-75
2023/08/09 00:11:14;;;;;;;0.98;0.70;;;;;;;20.07;100.00;100732.84;5052804;28;20029;-77
2023/08/09 00:13:39;;;;;;;1.02;0.80;;;;;;;20.12;100.00;100734.28;5055011;28;20476;-75
2023/08/09 00:16:05;;;;;;;1.08;0.65;;;;;;;19.55;100.00;100649.69;5056606;28;20035;-76
2023/08/09 00:18:31;;;;;;;1.10;0.80;;;;;;;19.63;100.00;100642.38;5056608;28;20029;-76
2023/08/09 00:20:56;;;;;;;1.98;0.80;;;;;;;19.94;100.00;100683.66;5055136;28;20384;-74
2023/08/09 00:23:21;;;;;;;1.65;0.73;;;;;;;19.87;100.00;100677.13;5038176;28;20549;-77
2023/08/09 00:25:47;;;;;;;1.88;0.80;;;;;;;20.00;100.00;100683.31;5055338;28;20033;-75
2023/08/09 00:28:12;;;;;;;1.65;0.80;;;;;;;20.38;100.00;100712.19;5054650;28;20091;-73
2023/08/09 00:30:38;;;;;;;0.98;0.82;;;;;;;19.92;100.00;100702.72;5036611;28;20064;-75
2023/08/09 00:33:04;;;;;;;2.08;0.82;;;;;;;19.83;100.00;100667.91;5054808;28;20021;-75
2023/08/09 00:35:30;;;;;;;0.98;0.88;;;;;;;20.22;100.00;100740.63;5054393;28;20021;-77
2023/08/09 00:37:56;;;;;;;1.75;1.00;;;;;;;19.75;100.00;100673.50;5036714;28;20097;-77
2023/08/09 00:40:21;;;;;;;1.08;0.80;;;;;;;20.20;100.00;100732.16;5054490;28;20101;-77
2023/08/09 00:42:46;;;;;;;2.28;0.90;;;;;;;19.98;100.00;100679.97;5054128;28;20032;-77
2023/08/09 00:45:12;;;;;;;1.58;0.98;;;;;;;20.19;100.00;100745.97;5054525;28;20040;-76
2023/08/09 00:47:38;;;;;;;2.85;0.90;;;;;;;19.25;100.00;100680.50;5054409;28;20488;-76
2023/08/09 00:50:04;;;;;;;1.27;0.90;;;;;;;19.52;100.00;100719.50;5054115;28;20419;-75
2023/08/09 00:52:30;;;;;;;1.58;1.17;;;;;;;19.58;100.00;100730.34;5054335;28;20464;-75
2023/08/09 00:54:55;;;;;;;1.73;1.20;;;;;;;18.91;100.00;100632.44;5054183;28;20082;-76
2023/08/09 00:57:21;;;;;;;3.08;1.17;;;;;;;18.83;100.00;100683.53;5054072;28;20044;-75
2023/08/09 00:59:46;;;;;;;3.22;1.90;;;;;;;18.53;100.00;100746.03;5053793;28;20059;-76
2023/08/09 01:02:12;;;;;;;3.30;2.20;;;;;;;17.64;100.00;100667.91;5054345;28;20021;-77
2023/08/09 01:04:38;;;;;;;2.80;1.80;;;;;;;17.95;100.00;100715.28;5054420;28;20049;-76
2023/08/09 01:07:27;;;;;;;1.75;1.65;;;;;;;18.10;100.00;100677.72;5054229;28;20474;-77
2023/08/09 01:10:31;;;;;;;2.10;1.50;;;;;;;18.27;100.00;100682.88;5054212;28;20029;-76
2023/08/09 01:13:03;;;;;;;2.55;1.52;;;;;;;18.01;100.00;100622.38;5054357;28;20112;-76
2023/08/09 01:15:31;;;;;;;3.28;1.45;;;;;;;18.19;100.00;100606.03;5053842;28;20487;-77
2023/08/09 01:17:58;;;;;;;1.70;1.40;;;;;;;18.37;100.00;100648.06;5054047;28;20079;-77
2023/08/09 01:20:25;;;;;;;2.47;1.48;;;;;;;17.98;100.00;100591.66;5036211;28;20091;-76
2023/08/09 01:23:03;;;;;;;1.50;1.40;;;;;;;18.39;100.00;100674.56;5053409;28;20029;-76
2023/08/09 01:25:32;;;;;;;2.80;1.55;;;;;;;18.31;100.00;100609.75;5048579;28;20047;-77
2023/08/09 01:27:58;;;;;;;2.85;1.50;;;;;;;18.28;100.00;100640.81;5047297;28;20029;-74
2023/08/09 01:30:24;;;;;;;3.92;1.40;;;;;;;18.29;100.00;100649.31;5053492;28;20099;-76
2023/08/09 01:32:49;;;;;;;1.95;1.55;;;;;;;18.27;100.00;100671.75;5035982;28;20033;-73
2023/08/09 01:35:16;;;;;;;4.75;1.38;;;;;;;18.28;100.00;100630.50;5052842;28;20025;-75
2023/08/09 01:37:49;;;;;;;2.60;1.40;;;;;;;18.76;100.00;100661.56;5053281;28;20111;-76
2023/08/09 01:40:17;;;;;;;1.92;1.40;;;;;;;18.48;100.00;100620.06;5053327;28;20119;-77
2023/08/09 01:42:43;;;;;;;2.78;1.60;;;;;;;18.52;100.00;100633.63;5053554;28;20094;-76
2023/08/09 01:45:10;;;;;;;2.88;1.45;;;;;;;18.34;100.00;100670.56;5053057;28;20033;-76
2023/08/09 01:47:38;;;;;;;1.65;1.52;;;;;;;18.18;100.00;100621.56;5053026;28;20142;-75
2023/08/09 01:50:04;;;;;;;2.38;1.40;;;;;;;17.76;100.00;100610.75;5053225;28;20033;-77
2023/08/09 01:52:29;;;;;;;1.67;1.13;;;;;;;18.50;100.00;100664.59;5054041;28;20040;-76
2023/08/09 01:54:55;;;;;;;1.55;1.10;;;;;;;17.93;100.00;100631.34;5052499;28;20415;-76
2023/08/09 01:57:20;;;;;;;2.78;1.98;;;;;;;17.97;100.00;100635.44;5052823;28;20044;-76
2023/08/09 01:59:46;;;;;;;4.65;2.00;;;;;;;18.08;100.00;100685.50;5053009;28;20041;-75
2023/08/09 02:02:12;;;;;;;2.55;1.67;;;;;;;17.50;100.00;100618.84;5052772;28;20415;-75
2023/08/09 02:04:37;;;;;;;4.07;1.85;;;;;;;17.25;100.00;100655.88;5052785;28;20108;-76
2023/08/09 02:07:03;;;;;;;5.47;1.80;;;;;;;17.49;100.00;100673.75;5052810;28;20036;-74
2023/08/09 02:09:29;;;;;;;3.00;1.65;;;;;;;17.35;100.00;100695.72;5053161;28;20024;-77
2023/08/09 02:11:54;;;;;;;3.17;1.70;;;;;;;16.57;100.00;100588.72;5053159;28;20400;-76
2023/08/09 02:14:20;;;;;;;3.35;1.70;;;;;;;17.41;100.00;100696.34;5053597;28;20114;-77
2023/08/09 02:16:46;;;;;;;2.17;1.70;;;;;;;17.32;100.00;100702.72;5052790;28;20033;-75
2023/08/09 02:19:12;;;;;;;4.00;1.67;;;;;;;16.94;100.00;100629.88;5053443;28;20480;-77
2023/08/09 02:21:38;;;;;;;2.17;1.98;;;;;;;16.88;100.00;100616.47;5053014;28;20064;-77
2023/08/09 02:24:05;;;;;;;3.80;1.60;;;;;;;17.16;100.00;100676.03;5053024;28;20033;-76
2023/08/09 02:26:33;;;;;;;3.90;1.50;;;;;;;16.84;100.00;100638.88;5052548;28;20547;-76
2023/08/09 02:29:00;;;;;;;4.63;1.80;;;;;;;16.88;100.00;100647.28;5052613;28;20119;-76
2023/08/09 02:31:26;;;;;;;2.67;1.73;;;;;;;17.09;100.00;100701.16;5052787;28;20036;-75
2023/08/09 02:33:52;;;;;;;4.13;1.70;;;;;;;16.85;100.00;100720.19;5052637;28;20036;-76
2023/08/09 02:36:17;;;;;;;1.98;1.55;;;;;;;16.92;100.00;100674.50;5052845;28;20476;-75
2023/08/09 02:38:42;;;;;;;2.70;1.80;;;;;;;17.05;100.00;100719.34;5035645;28;20029;-76
2023/08/09 02:41:09;;;;;;;2.88;1.60;;;;;;;16.52;100.00;100649.66;5052900;28;20419;-75
2023/08/09 02:43:36;;;;;;;3.00;1.58;;;;;;;16.46;100.00;100658.44;5052693;28;20051;-75
2023/08/09 02:46:01;;;;;;;4.90;1.52;;;;;;;16.69;100.00;100716.59;5052836;28;20510;-77
2023/08/09 02:48:26;;;;;;;2.72;1.60;;;;;;;16.37;100.00;100653.69;5052730;28;20032;-75
2023/08/09 02:50:52;;;;;;;2.70;1.83;;;;;;;16.68;100.00;100671.25;5052476;28;20099;-76
2023/08/09 02:53:18;;;;;;;5.55;1.70;;;;;;;16.98;100.00;100741.03;5052471;28;20108;-75
2023/08/09 02:55:44;;;;;;;3.53;1.65;;;;;;;16.76;100.00;100759.09;5052370;28;20086;-75
2023/08/09 02:58:10;;;;;;;3.90;2.03;;;;;;;16.74;100.00;100694.09;5052774;28;20174;-75
2023/08/09 03:00:36;;;;;;;4.43;1.92;;;;;;;16.57;100.00;100786.41;5052626;28;20056;-75
2023/08/09 03:03:04;;;;;;;5.53;1.80;;;;;;;16.53;100.00;100730.94;5052802;28;20033;-76
2023/08/09 03:05:30;;;;;;;2.85;1.63;;;;;;;16.80;100.00;100812.00;5051601;28;20040;-75
2023/08/09 03:07:56;;;;;;;3.03;1.83;;;;;;;16.67;100.00;100804.84;5051684;28;20057;-76
2023/08/09 03:10:22;;;;;;;3.22;1.70;;;;;;;16.45;100.00;100785.13;5033540;28;20137;-75
2023/08/09 03:12:48;;;;;;;3.20;1.67;;;;;;;17.07;100.00;100876.88;5052504;28;20025;-75
2023/08/09 03:15:15;;;;;;;6.95;1.80;;;;;;;17.21;100.00;100880.53;5052054;28;20052;-76
2023/08/09 03:17:41;;;;;;;3.85;1.67;;;;;;;17.06;100.00;100904.28;5052732;28;20025;-76
2023/08/09 03:20:13;;;;;;;2.63;1.73;;;;;;;17.71;100.00;100911.06;5052135;28;20025;-76
2023/08/09 03:22:39;;;;;;;4.22;1.80;;;;;;;17.07;100.00;100810.06;5052342;28;20025;-76
2023/08/09 03:25:04;;;;;;;3.05;1.55;;;;;;;17.75;100.00;100912.59;5053068;28;20048;-75
2023/08/09 03:27:30;;;;;;;3.50;1.70;;;;;;;17.17;100.00;100938.09;5054336;28;20467;-78
2023/08/09 03:29:55;;;;;;;3.13;2.20;;;;;;;16.74;100.00;100912.41;5035735;28;20037;-76
2023/08/09 03:32:21;;;;;;;6.28;2.38;;;;;;;17.04;100.00;100982.31;5052405;28;20032;-78
2023/08/09 03:34:46;;;;;;;4.43;1.77;;;;;;;17.03;100.00;100996.94;5060084;28;20025;-77
2023/08/09 03:37:12;;;;;;;7.57;2.38;;;;;;;17.18;100.00;101005.78;5056461;28;20029;-75
2023/08/09 03:39:37;;;;;;;4.78;2.38;;;;;;;16.89;100.00;101006.88;5051581;28;20036;-75
2023/08/09 03:42:02;;;;;;;6.50;2.50;;;;;;;16.85;100.00;101028.44;5051043;28;20043;-75
2023/08/09 03:44:28;;;;;;;4.97;2.72;;;;;;;16.70;100.00;101028.16;5050912;28;20036;-75
2023/08/09 03:46:55;;;;;;;3.38;2.28;;;;;;;16.65;100.00;101024.91;5036234;28;20097;-76
2023/08/09 03:49:20;;;;;;;5.50;2.42;;;;;;;16.97;100.00;100989.47;5055410;28;20032;-76
2023/08/09 03:51:46;;;;;;;3.67;2.60;;;;;;;16.74;100.00;101058.81;5055209;28;20033;-74
2023/08/09 03:54:11;;;;;;;6.32;2.75;;;;;;;16.90;100.00;101083.06;5054654;28;20021;-74
2023/08/09 03:56:37;;;;;;;9.38;2.72;;;;;;;16.79;100.00;101035.53;5037468;28;20123;-75
2023/08/09 03:59:02;;;;;;;7.00;2.70;;;;;;;16.97;100.00;101112.78;5054985;28;20403;-74
2023/08/09 04:01:27;;;;;;;6.53;2.50;;;;;;;16.67;100.00;101070.19;5054912;28;20114;-76
2023/08/09 04:03:53;;;;;;;4.80;2.70;;;;;;;16.97;100.00;101045.97;5055495;28;20028;-77
2023/08/09 04:06:19;;;;;;;6.47;3.00;;;;;;;16.50;100.00;100985.22;5056072;28;20029;-77
2023/08/09 04:08:46;;;;;;;5.53;2.90;;;;;;;17.40;100.00;101137.75;5055592;28;20028;-76
2023/08/09 04:11:11;;;;;;;6.50;2.97;;;;;;;17.05;100.00;101135.63;5054621;28;20190;-75
2023/08/09 04:13:37;;;;;;;5.72;3.30;;;;;;;17.18;100.00;101140.28;5054867;28;20039;-74
2023/08/09 04:16:03;;;;;;;7.25;3.30;;;;;;;17.04;100.00;101144.22;5054908;28;20021;-75
2023/08/09 04:18:28;;;;;;;9.18;3.70;;;;;;;17.45;100.00;101135.81;5054234;28;20116;-74
2023/08/09 04:20:54;;;;;;;12.77;3.08;;;;;;;17.37;100.00;101131.88;5054389;28;20025;-74
2023/08/09 04:23:20;;;;;;;5.85;2.50;;;;;;;17.02;100.00;101066.34;5054657;28;20515;-74
2023/08/09 04:25:46;;;;;;;6.07;2.42;;;;;;;17.33;100.00;101126.84;5037187;28;20028;-75
2023/08/09 04:28:12;;;;;;;5.05;2.38;;;;;;;17.96;100.00;101138.19;5036855;28;20484;-75
2023/08/09 04:30:37;;;;;;;5.20;2.47;;;;;;;17.94;100.00;101117.66;5054875;28;20086;-74
2023/08/09 04:33:03;;;;;;;4.03;2.53;;;;;;;17.03;100.00;101003.78;5054618;28;20033;-75
2023/08/09 04:35:33;;;;;;;6.32;2.90;;;;;;;17.27;100.00;101059.41;5036928;28;20033;-75
2023/08/09 04:38:04;;;;;;;5.63;2.67;;;;;;;17.90;100.00;101115.25;5054751;28;20039;-74
2023/08/09 04:40:31;;;;;;;6.90;2.70;;;;;;;17.89;100.00;101077.53;5054789;28;20021;-75
2023/08/09 04:42:57;;;;;;;6.75;2.97;;;;;;;18.20;100.00;101034.22;5054422;28;20068;-74
2023/08/09 04:45:24;;;;;;;4.40;2.75;;;;;;;18.57;100.00;101075.53;5054771;28;20117;-75
2023/08/09 04:47:52;;;;;;;5.15;2.60;;;;;;;18.53;100.00;101068.84;5054255;28;20040;-77
2023/08/09 04:50:20;;;;;;;4.95;2.40;;;;;;;18.50;100.00;101025.19;5054553;28;20476;-76
2023/08/09 04:52:45;;;;;;;4.93;2.63;;;;;;;18.62;100.00;101006.59;5054462;28;20117;-76
2023/08/09 04:55:11;;;;;;;4.68;2.58;;;;;;;19.09;100.00;101053.47;5053745;28;20117;-74
2023/08/09 04:57:38;;;;;;;6.90;2.45;;;;;;;19.50;100.00;101052.41;5034828;28;20039;-75
2023/08/09 05:00:08;;;;;;;7.15;2.25;;;;;;;19.30;100.00;100989.72;5035912;28;20113;-77
2023/08/09 05:02:36;;;;;;;3.40;2.47;;;;;;;19.66;100.00;101019.78;5053895;28;20049;-76
2023/08/09 05:05:03;;;;;;;4.40;2.40;;;;;;;19.88;100.00;101006.66;5053645;28;20370;-75
2023/08/09 05:07:29;;;;;;;3.45;2.58;;;;;;;19.48;100.00;100932.97;5053795;28;20403;-75
2023/08/09 05:09:54;;;;;;;4.63;2.63;;;;;;;19.85;100.00;100937.09;5053368;28;20029;-75
2023/08/09 05:12:20;;;;;;;6.28;2.40;;;;;;;20.59;100.00;100975.41;5053483;28;20572;-76
2023/08/09 05:14:45;;;;;;;8.40;2.80;;;;;;;19.81;100.00;100936.44;5053705;28;20047;-74
2023/08/09 05:17:10;;;;;;;7.07;3.20;;;;;;;19.95;100.00;100911.69;5035875;28;20017;-75
2023/08/09 05:19:36;;;;;;;6.50;2.70;;;;;;;20.96;100.00;100968.22;5053446;28;20059;-75
2023/08/09 05:22:01;;;;;;;4.68;2.60;;;;;;;21.08;100.00;100952.06;5053279;28;20036;-74
2023/08/09 05:24:27;;;;;;;5.85;2.50;;;;;;;21.35;100.00;100943.59;5053327;28;20029;-75
2023/08/09 05:26:52;;;;;;;2.92;2.15;;;;;;;21.37;100.00;100909.88;5054218;28;20025;-75
2023/08/09 05:29:17;;;;;;;6.30;2.50;;;;;;;21.16;100.00;100836.06;5053597;28;20029;-75
2023/08/09 05:31:43;;;;;;;2.88;1.85;;;;;;;22.06;100.00;100926.50;5055955;28;20025;-77
2023/08/09 05:34:08;;;;;;;4.78;2.20;;;;;;;22.13;100.00;100922.59;5054170;28;20036;-74
2023/08/09 05:36:34;;;;;;;8.65;3.13;;;;;;;21.91;100.00;100860.03;5053237;28;20108;-75
2023/08/09 05:38:59;;;;;;;4.05;3.10;;;;;;;22.05;100.00;100877.34;5052628;28;20056;-77
2023/08/09 05:41:25;;;;;;;5.90;3.70;;;;;;;22.39;100.00;100944.31;5055248;28;20079;-78
2023/08/09 05:43:50;;;;;;;5.65;3.00;;;;;;;22.64;100.00;100943.69;5052810;28;20044;-74
2023/08/09 05:46:15;;;;;;;6.05;2.80;;;;;;;22.64;100.00;100959.25;5053100;28;20029;-75
2023/08/09 05:48:41;;;;;;;4.88;2.65;;;;;;;22.18;100.00;100959.44;5052859;28;20037;-76
2023/08/09 05:51:06;;;;;;;4.63;2.60;;;;;;;21.96;100.00;100896.88;5053177;28;20380;-75
2023/08/09 05:53:32;;;;;;;4.63;2.80;;;;;;;22.80;100.00;100892.53;5052653;28;20100;-74
2023/08/09 05:55:57;;;;;;;6.85;3.00;;;;;;;23.46;100.00;100897.69;5052396;28;20032;-75
2023/08/09 05:58:22;;;;;;;5.60;2.95;;;;;;;23.53;100.00;100932.72;5052112;28;20140;-73
2023/08/09 06:00:51;;;;;;;5.13;3.00;;;;;;;23.71;100.00;100916.72;5034680;28;20045;-75
2023/08/09 06:03:17;;;;;;;5.53;2.70;;;;;;;23.99;100.00;100900.94;5052709;28;20094;-78
2023/08/09 06:05:43;;;;;;;5.53;3.22;;;;;;;23.39;100.00;100871.31;5035523;28;20034;-75
2023/08/09 06:08:08;;;;;;;5.70;2.40;;;;;;;23.98;100.00;100908.84;5034144;28;20423;-74
2023/08/09 06:10:33;;;;;;;3.05;2.15;;;;;;;23.29;100.00;100862.44;5051937;28;20468;-74
2023/08/09 06:12:59;;;;;;;1.80;1.17;;;;;;;23.94;100.00;100915.19;5052085;28;20029;-74
2023/08/09 06:15:24;;;;;;;3.47;1.50;;;;;;;23.85;100.00;100864.66;5051997;28;20171;-74
2023/08/09 06:17:50;;;;;;;2.28;1.20;;;;;;;24.26;100.00;100842.81;5052230;28;20121;-77
2023/08/09 06:20:16;;;;;;;3.00;1.60;;;;;;;24.39;100.00;100848.78;5052180;28;20028;-74
2023/08/09 06:22:41;;;;;;;2.08;1.50;;;;;;;24.40;100.00;100913.72;5052500;28;20021;-74
2023/08/09 06:25:08;;;;;;;5.18;2.40;;;;;;;24.47;100.00;100864.66;5052789;28;20037;-74
2023/08/09 06:27:34;;;;;;;3.92;1.60;;;;;;;24.92;100.00;100910.81;5034272;28;20048;-74
2023/08/09 06:29:59;;;;;;;4.80;1.10;;;;;;;24.21;100.00;100861.31;5034129;28;20360;-75
2023/08/09 06:32:25;;;;;;;3.20;1.05;;;;;;;24.12;100.00;100874.97;5034641;28;20116;-73
2023/08/09 06:34:50;;;;;;;2.78;1.55;;;;;;;24.53;100.00;100865.06;5052073;28;20033;-75
2023/08/09 06:37:15;;;;;;;4.63;0.90;;;;;;;24.91;100.00;100927.41;5052678;28;20052;-75
2023/08/09 06:39:41;;;;;;;4.30;1.10;;;;;;;24.93;100.00;100917.72;5033955;28;20045;-75
2023/08/09 06:42:08;;;;;;;1.38;0.98;;;;;;;24.77;100.00;100878.97;5051857;28;20033;-75
2023/08/09 06:44:34;;;;;;;0.80;0.80;;;;;;;24.80;100.00;100927.31;5051818;28;20031;-73
2023/08/09 06:46:59;;;;;;;1.23;0.80;;;;;;;24.83;100.00;100932.31;5052304;28;20033;-74
2023/08/09 06:49:25;;;;;;;2.85;1.10;;;;;;;24.92;100.00;100893.44;5051943;28;20033;-75
2023/08/09 06:51:51;;;;;;;1.45;0.90;;;;;;;24.32;100.00;100873.56;5053181;28;20043;-74
2023/08/09 06:54:16;;;;;;;0.95;0.60;;;;;;;25.13;100.00;100930.09;5061521;28;20037;-75
2023/08/09 06:56:42;;;;;;;1.58;0.90;;;;;;;25.82;100.00;100913.63;5057132;28;20060;-76
2023/08/09 06:59:07;;;;;;;1.25;0.90;;;;;;;25.29;100.00;100920.22;5051725;28;20132;-76
2023/08/09 07:01:32;;;;;;;1.73;0.80;;;;;;;25.62;100.00;100865.63;5051717;28;20053;-76
2023/08/09 07:03:58;;;;;;;4.40;0.70;;;;;;;25.28;100.00;100943.75;5033984;28;20028;-74
2023/08/09 07:06:24;;;;;;;3.10;1.73;;;;;;;25.14;100.00;100884.88;5033800;28;20041;-75
2023/08/09 07:08:53;;;;;;;1.70;0.98;;;;;;;25.46;100.00;100938.06;5051506;28;20546;-75
2023/08/09 07:11:19;;;;;;;4.20;1.52;;;;;;;25.91;100.00;100870.38;5052496;28;20055;-75
2023/08/09 07:13:45;;;;;;;7.20;2.97;;;;;;;26.10;100.00;100925.41;5051469;28;20067;-75
2023/08/09 07:16:11;;;;;;;1.92;1.20;;;;;;;25.85;100.00;100936.84;5033618;28;20056;-75
2023/08/09 07:18:37;;;;;;;4.70;2.50;;;;;;;25.95;100.00;100888.25;5034020;28;20131;-75
2023/08/09 07:21:03;;;;;;;2.63;1.20;;;;;;;25.88;100.00;100887.09;5053441;28;20452;-75
2023/08/09 07:23:28;;;;;;;1.73;0.70;;;;;;;25.95;100.00;100922.16;5055632;28;20036;-74
2023/08/09 07:25:54;;;;;;;1.58;0.90;;;;;;;27.04;100.00;100910.91;5055790;28;20090;-75
2023/08/09 07:28:19;;;;;;;2.75;0.90;;;;;;;26.68;100.00;100916.44;5055776;28;20029;-75
2023/08/09 07:30:45;;;;;;;1.40;0.90;;;;;;;26.17;100.00;100945.66;5055161;28;20029;-75
2023/08/09 07:33:10;;;;;;;1.42;0.98;;;;;;;25.63;100.00;100955.88;5055319;28;20462;-75
2023/08/09 07:35:36;;;;;;;1.90;1.00;;;;;;;25.81;100.00;100898.91;5054787;28;20033;-77
2023/08/09 07:38:02;;;;;;;1.60;0.60;;;;;;;25.35;100.00;100859.03;5055032;28;20036;-76
2023/08/09 07:40:27;;;;;;;2.63;0.80;;;;;;;26.72;100.00;100869.09;5055663;28;20029;-75
2023/08/09 07:42:53;;;;;;;2.45;1.00;;;;;;;26.91;100.00;100900.63;5044448;28;20419;-75
2023/08/09 07:45:18;;;;;;;1.75;0.77;;;;;;;25.12;100.00;100844.28;5074431;28;20430;-76
2023/08/09 07:47:44;;;;;;;1.42;0.63;;;;;;;26.95;100.00;100902.03;5075549;28;20028;-76
2023/08/09 07:50:10;;;;;;;1.85;0.80;;;;;;;25.87;100.00;100928.91;5075086;28;20167;-77
2023/08/09 07:52:36;;;;;;;1.83;1.00;;;;;;;27.28;100.00;100893.19;5074803;28;20029;-75
2023/08/09 07:55:04;;;;;;;0.93;0.70;;;;;;;26.14;100.00;100841.59;5075315;28;20029;-76
2023/08/09 07:57:30;;;;;;;4.50;1.38;;;;;;;27.23;100.00;100832.69;5075423;28;20487;-76
2023/08/09 07:59:55;;;;;;;1.15;0.70;;;;;;;26.76;100.00;100899.22;5074620;28;20050;-74
2023/08/09 08:02:21;;;;;;;1.08;0.50;;;;;;;26.75;100.00;100842.78;5075423;28;20490;-76
2023/08/09 08:04:46;;;;;;;1.15;0.90;;;;;;;27.19;100.00;100894.81;5078630;28;20119;-77
2023/08/09 08:07:13;;;;;;;1.27;0.70;;;;;;;26.67;100.00;100841.69;5074847;28;20024;-78
2023/08/09 08:09:44;;;;;;;1.73;1.10;;;;;;;25.90;100.00;100866.94;5075044;28;20119;-75
2023/08/09 08:12:11;;;;;;;4.07;2.15;;;;;;;27.53;100.00;100858.06;5057101;28;20553;-76
2023/08/09 08:14:37;;;;;;;3.28;0.90;;;;;;;27.52;100.00;100877.28;5056734;28;20079;-75
2023/08/09 08:17:03;;;;;;;3.05;1.30;;;;;;;27.17;100.00;100822.75;5074385;28;20086;-77
2023/08/09 08:19:28;;;;;;;1.55;0.70;;;;;;;28.12;100.00;100801.47;5074776;28;20472;-76
2023/08/09 08:21:54;;;;;;;0.90;0.63;;;;;;;27.40;100.00;100871.31;5074886;28;20021;-77
2023/08/09 08:24:19;;;;;;;2.10;0.70;;;;;;;27.62;100.00;100787.53;5074278;28;20031;-77
2023/08/09 08:26:45;;;;;;;1.05;0.52;;;;;;;27.52;100.00;100751.84;5057512;28;20035;-77
2023/08/09 08:29:10;;;;;;;0.75;0.50;;;;;;;28.09;100.00;100794.72;5074815;28;20111;-77
2023/08/09 08:31:36;;;;;;;1.55;0.80;;;;;;;28.16;100.00;100776.69;5056926;28;20040;-77
2023/08/09 08:34:02;;;;;;;1.65;0.50;;;;;;;27.13;100.00;100790.84;5074485;28;20028;-75
2023/08/09 08:36:27;;;;;;;2.88;0.80;;;;;;;27.97;100.00;100813.28;5075216;28;20086;-76
2023/08/09 08:38:53;;;;;;;0.93;0.50;;;;;;;27.69;100.00;100837.50;5074944;28;20032;-76
2023/08/09 08:41:18;;;;;;;1.45;0.40;;;;;;;27.61;100.00;100783.28;5075054;28;20043;-78
2023/08/09 08:43:45;;;;;;;1.38;0.60;;;;;;;28.11;100.00;100758.78;5057141;28;20067;-78
2023/08/09 08:46:14;;;;;;;1.25;1.00;;;;;;;27.79;100.00;100784.25;5057078;28;20028;-78
2023/08/09 08:48:43;;;;;;;2.50;0.52;;;;;;;28.37;100.00;100753.84;5074853;28;20029;-75
2023/08/09 08:51:09;;;;;;;0.85;0.40;;;;;;;27.29;100.00;100855.69;5056602;28;20407;-76
2023/08/09 08:53:35;;;;;;;2.25;0.60;;;;;;;27.08;100.00;100842.59;5074852;28;20028;-76
2023/08/09 08:56:00;;;;;;;3.90;0.60;;;;;;;27.82;100.00;100836.31;5075142;28;20033;-75
2023/08/09 08:58:26;;;;;;;1.13;0.60;;;;;;;27.25;100.00;100799.41;5074750;28;20021;-76
2023/08/09 09:00:51;;;;;;;0.70;0.40;;;;;;;27.95;100.00;100807.34;5074717;28;20094;-77
2023/08/09 09:03:17;;;;;;;0.47;0.40;;;;;;;27.40;100.00;100839.94;5074460;28;20025;-76
2023/08/09 09:05:42;;;;;;;0.50;0.43;;;;;;;27.57;100.00;100826.31;5074086;28;20098;-76
2023/08/09 09:08:08;;;;;;;0.77;0.40;;;;;;;28.49;100.00;100792.00;5056467;28;20033;-77
2023/08/09 09:10:34;;;;;;;1.45;0.50;;;;;;;28.20;100.00;100801.63;5073982;28;20029;-77
2023/08/09 09:12:59;;;;;;;1.88;0.50;;;;;;;28.90;100.00;100717.59;5074438;28;20028;-75
2023/08/09 09:15:27;;;;;;;1.05;0.60;;;;;;;28.16;100.00;100740.06;5056577;28;20481;-78
2023/08/09 09:17:53;;;;;;;1.35;0.60;;;;;;;28.03;100.00;100747.31;5074237;28;20031;-76
2023/08/09 09:20:23;;;;;;;1.48;0.65;;;;;;;28.41;100.00;100715.97;5074243;28;20035;-78
2023/08/09 09:22:49;;;;;;;2.58;0.60;;;;;;;28.95;100.00;100784.28;5074177;28;20028;-77
2023/08/09 09:25:17;;;;;;;1.08;0.63;;;;;;;28.48;100.00;100709.22;5074269;28;20049;-77
2023/08/09 09:27:47;;;;;;;0.98;0.70;;;;;;;29.18;100.00;100766.47;5074633;28;20074;-77
2023/08/09 09:30:19;;;;;;;0.77;0.60;;;;;;;28.33;100.00;100728.91;5074021;28;20036;-77
2023/08/09 09:32:54;;;;;;;2.60;0.70;;;;;;;28.24;100.00;100797.78;5073934;28;20035;-78
2023/08/09 09:35:20;;;;;;;0.50;0.50;;;;;;;28.86;100.00;100764.16;5074110;28;20029;-78
2023/08/09 09:37:47;;;;;;;1.38;0.52;;;;;;;27.92;100.00;100727.34;5056165;28;20036;-77
2023/08/09 09:40:24;;;;;;;0.93;0.60;;;;;;;27.21;100.00;100767.50;5073882;28;20476;-76
2023/08/09 09:42:54;;;;;;;0.65;0.40;;;;;;;28.48;100.00;100721.47;5073032;28;20111;-76
2023/08/09 09:45:30;;;;;;;1.77;0.50;;;;;;;28.70;100.00;100697.66;5073456;28;20112;-76
2023/08/09 09:47:58;;;;;;;1.42;0.50;;;;;;;29.37;100.00;100634.53;5055767;28;20044;-77
2023/08/09 09:50:27;;;;;;;1.75;0.60;;;;;;;28.61;100.00;100725.50;5073594;28;20134;-76
2023/08/09 09:52:53;;;;;;;1.17;0.55;;;;;;;28.91;100.00;100759.34;5073701;28;20067;-77
2023/08/09 09:55:25;;;;;;;1.63;0.73;;;;;;;28.84;100.00;100760.06;5073245;28;20024;-75
2023/08/09 09:57:50;;;;;;;0.52;0.35;;;;;;;28.94;100.00;100722.38;5073272;28;20025;-76
2023/08/09 10:00:20;;;;;;;1.40;0.50;;;;;;;28.34;100.00;100698.34;5051742;28;20057;-75
2023/08/09 10:02:47;;;;;;;3.92;0.50;;;;;;;28.04;100.00;100670.53;5053143;28;20064;-77
2023/08/09 10:05:18;;;;;;;2.03;0.60;;;;;;;29.46;100.00;100667.72;5053440;28;20468;-78
2023/08/09 10:07:46;;;;;;;1.60;0.50;;;;;;;29.21;100.00;100626.47;5053254;28;20092;-77
2023/08/09 10:10:12;;;;;;;0.77;0.50;;;;;;;29.16;100.00;100713.38;5052969;28;20123;-78
2023/08/09 10:12:43;;;;;;;2.35;0.73;;;;;;;30.12;100.00;100694.50;5039214;28;20092;-78
2023/08/09 10:15:12;;;;;;;0.80;0.50;;;;;;;29.25;100.00;100652.25;5060876;28;20114;-80
2023/08/09 10:17:40;;;;;;;0.95;0.60;;;;;;;29.21;100.00;100705.94;5053997;28;20483;-77
2023/08/09 10:20:08;;;;;;;0.60;0.50;;;;;;;29.08;100.00;100728.94;5053261;28;20033;-73
2023/08/09 10:22:34;;;;;;;2.20;0.60;;;;;;;28.26;100.00;100678.94;5035145;28;20017;-76
2023/08/09 10:24:59;;;;;;;0.50;0.45;;;;;;;29.05;100.00;100718.78;5052430;28;20115;-77
2023/08/09 10:27:51;;;;;;;0.65;0.50;;;;;;;29.08;100.00;100710.63;5034779;28;20033;-77
2023/08/09 10:30:19;;;;;;;1.90;0.50;;;;;;;30.11;100.00;100662.16;5052815;28;20033;-78
2023/08/09 10:32:49;;;;;;;0.60;0.30;;;;;;;29.35;100.00;100655.66;5052852;28;20025;-76
2023/08/09 10:35:20;;;;;;;1.90;0.60;;;;;;;29.40;100.00;100697.97;5052570;28;20079;-80
2023/08/09 10:37:47;;;;;;;1.42;0.60;;;;;;;29.22;100.00;100636.81;5052330;28;20029;-76
2023/08/09 10:40:18;;;;;;;0.50;0.40;;;;;;;29.35;100.00;100691.50;5034780;28;20037;-76
2023/08/09 10:42:45;;;;;;;;;;;;;;;29.49;100.00;100693.66;5035480;28;20036;-76
2023/08/09 10:45:11;;;;;;;1.58;0.60;;;;;;;29.89;100.00;100684.44;5052319;28;19909;-75
2023/08/09 10:47:39;;;;;;;0.93;0.45;;;;;;;28.78;100.00;100643.59;5052059;28;20040;-75
2023/08/09 10:50:06;;;;;;;1.42;0.57;;;;;;;28.82;100.00;100658.03;5051719;28;20436;-74
2023/08/09 10:52:40;;;;;;;2.53;0.50;;;;;;;29.49;100.00;100685.78;5052574;28;20035;-76
2023/08/09 10:55:25;;;;;;;0.63;0.40;;;;;;;29.64;100.00;100677.28;5051411;28;20032;-76
2023/08/09 10:57:53;;;;;;;2.58;0.60;;;;;;;30.79;100.00;100589.63;5052225;28;20035;-76
2023/08/09 11:00:20;;;;;;;0.75;0.50;;;;;;;31.03;100.00;100560.03;5037795;28;20059;-75
2023/08/09 11:02:46;;;;;;;0.50;0.38;;;;;;;31.03;100.00;100633.59;5071927;28;20020;-76
2023/08/09 11:05:12;;;;;;;1.15;0.73;;;;;;;30.26;100.00;100591.59;5072015;28;20098;-76
2023/08/09 11:07:51;;;;;;;0.73;0.60;;;;;;;30.08;100.00;100588.19;5071419;28;20032;-75
2023/08/09 11:10:34;;;;;;;3.38;0.80;;;;;;;30.12;100.00;100653.34;5072001;28;20040;-75
2023/08/09 11:13:13;;;;;;;1.52;0.50;;;;;;;29.66;100.00;100661.38;5071924;28;20037;-78
2023/08/09 11:15:44;;;;;;;2.65;0.77;;;;;;;29.98;100.00;100656.50;5053861;28;20495;-77